createdAt,value
2022-10-21T00:00:54.473Z,14.15
2022-10-21T00:03:56.027Z,14.14
2022-10-21T00:06:57.589Z,14.08
2022-10-21T00:09:59.144Z,14.11
2022-10-21T00:13:00.615Z,14.13
2022-10-21T00:16:14.954Z,14.26
2022-10-21T00:19:16.299Z,14.27
2022-10-21T00:22:17.859Z,14.23
2022-10-21T00:25:19.629Z,14.21
2022-10-21T00:28:21.186Z,14.15
2022-10-21T00:31:23.767Z,14.13
2022-10-21T00:34:28.582Z,14.10
2022-10-21T00:37:33.277Z,14.20
2022-10-21T00:40:35.089Z,14.22
2022-10-21T00:44:13.714Z,14.33
2022-10-21T00:47:21.830Z,14.36
2022-10-21T00:50:30.800Z,14.34
2022-10-21T00:53:34.981Z,14.31
2022-10-21T00:56:37.563Z,14.24
2022-10-21T00:59:44.074Z,14.26
2022-10-21T01:02:45.898Z,14.27
2022-10-21T01:05:47.865Z,14.27
2022-10-21T01:08:49.867Z,14.26
2022-10-21T01:11:52.104Z,14.24
2022-10-21T01:18:16.293Z,14.23
2022-10-21T01:21:47.765Z,14.22
2022-10-21T01:25:17.200Z,14.22
2022-10-21T01:28:52.638Z,14.24
2022-10-21T01:32:02.224Z,14.31
2022-10-21T01:35:21.714Z,14.36
2022-10-21T01:38:32.693Z,14.38
2022-10-21T01:41:42.177Z,14.36
2022-10-21T01:44:52.908Z,14.44
2022-10-21T01:47:57.680Z,14.48
2022-10-21T01:51:05.687Z,14.53
2022-10-21T01:54:13.010Z,14.64
2022-10-21T01:57:18.630Z,14.68
2022-10-21T02:00:20.741Z,14.70
2022-10-21T02:03:31.177Z,14.65
2022-10-21T02:06:33.026Z,14.63
2022-10-21T02:09:34.693Z,14.65
2022-10-21T02:12:39.622Z,14.64
2022-10-21T02:15:44.909Z,14.58
2022-10-21T02:18:46.638Z,14.59
2022-10-21T02:21:51.853Z,14.58
2022-10-21T02:24:58.650Z,14.67
2022-10-21T02:28:00.616Z,14.65
2022-10-21T02:31:14.358Z,14.67
2022-10-21T02:34:45.101Z,14.74
2022-10-21T02:37:59.951Z,14.77
2022-10-21T02:41:04.580Z,14.72
2022-10-21T02:44:07.507Z,14.72
2022-10-21T02:47:09.040Z,14.70
2022-10-21T02:50:10.789Z,14.65
2022-10-21T02:53:13.334Z,14.66
2022-10-21T02:56:14.837Z,14.64
2022-10-21T02:59:16.393Z,14.67
2022-10-21T03:02:17.874Z,14.62
2022-10-21T03:05:19.396Z,14.61
2022-10-21T03:08:20.961Z,14.63
2022-10-21T03:11:22.534Z,14.65
2022-10-21T03:14:24.000Z,14.55
2022-10-21T03:17:25.650Z,14.66
2022-10-21T03:20:27.186Z,14.68
2022-10-21T03:23:28.743Z,14.65
2022-10-21T03:26:30.198Z,14.65
2022-10-21T03:29:31.689Z,14.63
2022-10-21T03:32:33.309Z,14.64
2022-10-21T03:35:34.866Z,14.64
2022-10-21T03:38:36.424Z,14.66
2022-10-21T03:41:38.015Z,14.66
2022-10-21T03:44:39.573Z,14.68
2022-10-21T03:47:41.073Z,14.68
2022-10-21T03:50:42.585Z,14.69
2022-10-21T03:53:44.167Z,14.70
2022-10-21T03:56:46.010Z,14.73
2022-10-21T03:59:47.522Z,14.73
2022-10-21T04:02:49.428Z,14.68
2022-10-21T04:05:50.921Z,14.71
2022-10-21T04:08:52.707Z,14.68
2022-10-21T04:11:54.345Z,14.65
2022-10-21T04:14:55.795Z,14.64
2022-10-21T04:17:57.352Z,14.63
2022-10-21T04:20:58.874Z,14.59
2022-10-21T04:24:00.330Z,14.63
2022-10-21T04:27:01.839Z,14.64
2022-10-21T04:30:03.855Z,14.61
2022-10-21T04:33:05.514Z,14.65
2022-10-21T04:36:07.379Z,14.63
2022-10-21T04:39:08.905Z,14.63
2022-10-21T04:42:10.382Z,14.64
2022-10-21T04:45:11.845Z,14.63
2022-10-21T04:48:13.710Z,14.64
2022-10-21T04:51:15.531Z,14.64
2022-10-21T04:54:17.179Z,14.66
2022-10-21T04:57:20.434Z,14.65
2022-10-21T05:00:21.950Z,14.62
2022-10-21T05:03:23.545Z,14.59
2022-10-21T05:06:25.102Z,14.62
2022-10-21T05:09:26.557Z,14.59
2022-10-21T05:12:28.041Z,14.61
2022-10-21T05:15:29.569Z,14.64
2022-10-21T05:18:31.540Z,14.60
2022-10-21T05:24:53.586Z,14.63
2022-10-21T05:27:55.039Z,14.63
2022-10-21T05:30:56.544Z,14.63
2022-10-21T05:33:58.165Z,14.59
2022-10-21T05:36:59.656Z,14.67
2022-10-21T05:40:03.839Z,14.67
2022-10-21T05:43:05.356Z,14.66
2022-10-21T05:46:08.591Z,14.62
2022-10-21T05:49:10.045Z,14.62
2022-10-21T05:52:12.322Z,14.63
2022-10-21T05:55:13.775Z,14.63
2022-10-21T05:58:15.333Z,14.62
2022-10-21T06:01:17.597Z,14.59
2022-10-21T06:04:19.167Z,14.56
2022-10-21T06:07:20.608Z,14.53
2022-10-21T06:10:25.507Z,14.52
2022-10-21T06:13:31.109Z,14.51
2022-10-21T06:16:35.282Z,14.39
2022-10-21T06:19:36.822Z,14.48
2022-10-21T06:22:38.441Z,14.46
2022-10-21T06:25:39.896Z,14.46
2022-10-21T06:28:43.780Z,14.43
2022-10-21T06:31:45.775Z,14.53
2022-10-21T06:34:47.253Z,14.56
2022-10-21T06:37:48.787Z,14.60
2022-10-21T06:40:50.263Z,14.60
2022-10-21T06:43:51.780Z,14.54
2022-10-21T06:46:54.139Z,14.49
2022-10-21T06:49:55.835Z,14.49
2022-10-21T06:52:57.404Z,14.53
2022-10-21T06:56:08.075Z,14.57
2022-10-21T06:59:10.290Z,14.59
2022-10-21T07:02:11.751Z,14.63
2022-10-21T07:05:13.342Z,14.65
2022-10-21T07:08:14.909Z,14.63
2022-10-21T07:11:16.465Z,14.65
2022-10-21T07:14:17.980Z,14.67
2022-10-21T07:17:20.501Z,14.67
2022-10-21T07:20:24.908Z,14.60
2022-10-21T07:23:26.780Z,14.58
2022-10-21T07:26:31.318Z,14.68
2022-10-21T07:29:32.860Z,14.74
2022-10-21T07:32:37.503Z,14.72
2022-10-21T07:35:39.062Z,14.78
2022-10-21T07:38:43.844Z,14.90
2022-10-21T07:41:54.361Z,15.01
2022-10-21T07:44:59.913Z,15.06
2022-10-21T07:48:01.369Z,14.98
2022-10-21T07:51:08.724Z,14.90
2022-10-21T07:54:12.849Z,14.91
2022-10-21T07:57:14.509Z,14.77
2022-10-21T08:00:15.964Z,14.71
2022-10-21T08:03:17.928Z,14.68
2022-10-21T08:06:19.412Z,14.70
2022-10-21T08:09:21.890Z,14.79
2022-10-21T08:12:26.825Z,14.86
2022-10-21T08:15:28.282Z,14.86
2022-10-21T08:18:29.836Z,14.96
2022-10-21T08:21:31.486Z,15.10
2022-10-21T08:24:33.161Z,15.20
2022-10-21T08:27:35.325Z,15.29
2022-10-21T08:30:36.985Z,15.34
2022-10-21T08:33:38.950Z,15.29
2022-10-21T08:36:40.813Z,15.33
2022-10-21T08:39:42.268Z,15.36
2022-10-21T08:42:45.506Z,15.33
2022-10-21T08:46:05.760Z,15.33
2022-10-21T08:49:15.624Z,15.32
2022-10-21T08:52:22.083Z,15.31
2022-10-21T08:55:30.218Z,15.28
2022-10-21T08:58:31.977Z,15.33
2022-10-21T09:01:56.829Z,15.30
2022-10-21T09:05:10.557Z,15.48
2022-10-21T09:08:59.973Z,15.62
2022-10-21T09:12:07.160Z,15.74
2022-10-21T09:15:24.319Z,15.84
2022-10-21T09:18:41.752Z,15.88
2022-10-21T09:22:22.502Z,15.91
2022-10-21T09:25:32.620Z,15.94
2022-10-21T09:28:34.854Z,15.91
2022-10-21T09:31:36.490Z,15.89
2022-10-21T09:34:47.576Z,15.85
2022-10-21T09:37:51.518Z,15.80
2022-10-21T09:41:03.005Z,15.64
2022-10-21T09:44:04.799Z,15.66
2022-10-21T09:47:32.460Z,15.64
2022-10-21T09:50:35.055Z,15.57
2022-10-21T09:53:53.704Z,15.38
2022-10-21T09:57:14.176Z,15.35
2022-10-21T10:00:15.716Z,15.25
2022-10-21T10:03:33.247Z,15.20
2022-10-21T10:06:39.160Z,15.15
2022-10-21T10:09:46.089Z,15.17
2022-10-21T10:12:55.961Z,15.20
2022-10-21T10:16:31.350Z,15.27
2022-10-21T10:19:32.970Z,15.32
2022-10-21T10:22:35.753Z,15.44
2022-10-21T10:25:39.377Z,15.50
2022-10-21T10:31:50.979Z,15.39
2022-10-21T10:34:57.173Z,15.31
2022-10-21T10:38:01.421Z,15.28
2022-10-21T10:41:07.745Z,15.30
2022-10-21T10:44:20.013Z,15.34
2022-10-21T10:47:27.931Z,15.32
2022-10-21T10:50:38.360Z,15.30
2022-10-21T10:53:39.775Z,15.30
2022-10-21T10:56:53.363Z,15.37
2022-10-21T11:00:04.657Z,15.37
2022-10-21T11:03:14.437Z,15.38
2022-10-21T11:06:18.344Z,15.52
2022-10-21T11:09:22.615Z,15.80
2022-10-21T11:12:26.635Z,16.02
2022-10-21T11:15:49.203Z,16.16
2022-10-21T11:18:56.661Z,16.18
2022-10-21T11:22:39.426Z,16.17
2022-10-21T11:25:46.620Z,16.39
2022-10-21T11:28:54.756Z,16.40
2022-10-21T11:32:26.993Z,16.38
2022-10-21T11:36:00.481Z,16.31
2022-10-21T11:39:21.382Z,16.55
2022-10-21T11:42:31.776Z,16.66
2022-10-21T11:46:02.957Z,16.68
2022-10-21T11:49:36.365Z,16.44
2022-10-21T11:52:44.435Z,16.05
2022-10-21T11:56:10.271Z,16.02
2022-10-21T11:59:17.883Z,16.01
2022-10-21T12:02:30.277Z,15.81
2022-10-21T12:05:37.556Z,15.69
2022-10-21T12:08:50.750Z,15.55
2022-10-21T12:12:06.787Z,15.34
2022-10-21T12:15:18.976Z,15.27
2022-10-21T12:18:23.464Z,15.25
2022-10-21T12:21:27.395Z,15.17
2022-10-21T12:24:45.048Z,15.21
2022-10-21T12:27:58.104Z,15.26
2022-10-21T12:31:37.635Z,15.33
2022-10-21T12:34:39.318Z,15.31
2022-10-21T12:38:04.252Z,15.26
2022-10-21T12:41:21.135Z,15.24
2022-10-21T12:44:27.675Z,15.32
2022-10-21T12:47:31.767Z,15.40
2022-10-21T12:50:34.607Z,15.48
2022-10-21T12:53:48.645Z,15.51
2022-10-21T12:56:59.268Z,15.31
2022-10-21T13:00:22.223Z,15.26
2022-10-21T13:03:45.604Z,15.32
2022-10-21T13:07:01.478Z,15.37
2022-10-21T13:10:05.884Z,15.49
2022-10-21T13:13:44.908Z,15.51
2022-10-21T13:16:52.304Z,15.69
2022-10-21T13:19:56.914Z,15.86
2022-10-21T13:23:32.123Z,16.08
2022-10-21T13:26:33.675Z,16.10
2022-10-21T13:29:38.025Z,16.03
2022-10-21T13:32:40.296Z,15.93
2022-10-21T13:35:49.953Z,15.83
2022-10-21T13:38:55.502Z,15.84
2022-10-21T13:42:02.263Z,15.90
2022-10-21T13:45:31.238Z,15.95
2022-10-21T13:48:41.333Z,16.09
2022-10-21T13:51:46.703Z,15.90
2022-10-21T13:54:57.407Z,15.63
2022-10-21T13:57:58.996Z,15.56
2022-10-21T14:01:07.454Z,15.49
2022-10-21T14:04:15.610Z,15.56
2022-10-21T14:07:19.263Z,15.47
2022-10-21T14:10:24.529Z,15.40
2022-10-21T14:13:31.365Z,15.49
2022-10-21T14:16:37.396Z,15.58
2022-10-21T14:19:38.937Z,15.63
2022-10-21T14:22:40.984Z,15.70
2022-10-21T14:25:42.779Z,15.84
2022-10-21T14:28:45.990Z,15.82
2022-10-21T14:31:47.617Z,15.85
2022-10-21T14:35:21.356Z,15.86
2022-10-21T14:38:36.070Z,15.87
2022-10-21T14:41:44.461Z,15.75
2022-10-21T14:44:48.504Z,15.61
2022-10-21T14:47:50.513Z,15.36
2022-10-21T14:50:56.231Z,15.13
2022-10-21T14:54:05.230Z,15.14
2022-10-21T14:57:26.836Z,15.01
2022-10-21T15:00:41.500Z,15.02
2022-10-21T15:03:49.821Z,15.01
2022-10-21T15:07:01.607Z,14.99
2022-10-21T15:10:03.013Z,14.94
2022-10-21T15:13:18.360Z,14.82
2022-10-21T15:16:21.064Z,14.67
2022-10-21T15:19:42.595Z,14.72
2022-10-21T15:22:48.491Z,14.72
2022-10-21T15:26:00.443Z,14.73
2022-10-21T15:29:12.409Z,14.69
2022-10-21T15:32:26.861Z,14.71
2022-10-21T15:35:31.027Z,14.72
2022-10-21T15:38:32.572Z,14.74
2022-10-21T15:41:34.060Z,14.66
2022-10-21T15:44:35.900Z,14.61
2022-10-21T15:47:38.593Z,14.53
2022-10-21T15:50:44.341Z,14.50
2022-10-21T15:53:46.008Z,14.55
2022-10-21T15:56:51.160Z,14.50
2022-10-21T15:59:52.645Z,14.43
2022-10-21T16:02:54.124Z,14.31
2022-10-21T16:05:56.169Z,14.27
2022-10-21T16:08:57.711Z,14.31
2022-10-21T16:12:00.656Z,14.24
2022-10-21T16:15:02.721Z,14.20
2022-10-21T16:18:11.224Z,14.30
2022-10-21T16:21:14.592Z,14.27
2022-10-21T16:24:16.037Z,14.24
2022-10-21T16:27:31.374Z,14.24
2022-10-21T16:30:41.938Z,14.25
2022-10-21T16:33:44.179Z,14.25
2022-10-21T16:36:45.671Z,14.24
2022-10-21T16:39:47.361Z,14.24
2022-10-21T16:42:50.257Z,14.22
2022-10-21T16:45:51.677Z,14.19
2022-10-21T16:48:54.121Z,14.18
2022-10-21T16:51:57.457Z,14.17
2022-10-21T16:54:58.947Z,14.17
2022-10-21T16:58:00.402Z,14.17
2022-10-21T17:01:06.404Z,14.17
2022-10-21T17:04:08.128Z,14.12
2022-10-21T17:07:10.920Z,14.02
2022-10-21T17:10:12.445Z,14.01
2022-10-21T17:13:13.947Z,13.94
2022-10-21T17:16:15.843Z,13.80
2022-10-21T17:19:17.656Z,13.83
2022-10-21T17:22:19.395Z,13.95
2022-10-21T17:25:22.762Z,13.89
2022-10-21T17:28:24.310Z,13.92
2022-10-21T17:31:28.232Z,13.91
2022-10-21T17:34:32.727Z,13.88
2022-10-21T17:37:34.230Z,13.76
2022-10-21T17:40:35.808Z,13.86
2022-10-21T17:43:37.451Z,13.77
2022-10-21T17:46:39.951Z,13.84
2022-10-21T17:49:41.913Z,13.85
2022-10-21T17:52:43.527Z,13.82
2022-10-21T17:55:44.973Z,13.86
2022-10-21T17:58:50.637Z,13.89
2022-10-21T18:01:52.229Z,13.90
2022-10-21T18:05:10.701Z,13.89
2022-10-21T18:08:12.272Z,13.88
2022-10-21T18:11:15.893Z,13.85
2022-10-21T18:14:17.559Z,13.84
2022-10-21T18:17:19.773Z,13.73
2022-10-21T18:20:22.588Z,13.80
2022-10-21T18:23:24.116Z,13.74
2022-10-21T18:26:28.915Z,13.81
2022-10-21T18:29:33.156Z,13.81
2022-10-21T18:32:34.793Z,13.83
2022-10-21T18:35:37.841Z,13.80
2022-10-21T18:38:39.867Z,13.85
2022-10-21T18:41:41.605Z,13.83
2022-10-21T18:44:43.632Z,13.80
2022-10-21T18:47:47.331Z,13.83
2022-10-21T18:50:48.922Z,13.85
2022-10-21T18:53:52.761Z,13.84
2022-10-21T18:56:55.021Z,13.86
2022-10-21T18:59:56.901Z,13.99
2022-10-21T19:02:58.359Z,14.03
2022-10-21T19:06:34.077Z,14.05
2022-10-21T19:09:35.789Z,14.01
2022-10-21T19:12:37.248Z,13.92
2022-10-21T19:15:45.066Z,13.91
2022-10-21T19:18:46.575Z,13.88
2022-10-21T19:21:48.137Z,13.86
2022-10-21T19:24:49.608Z,13.87
2022-10-21T19:27:51.049Z,13.91
2022-10-21T19:30:52.704Z,13.95
2022-10-21T19:33:54.500Z,13.93
2022-10-21T19:36:56.154Z,13.97
2022-10-21T19:39:57.975Z,13.99
2022-10-21T19:42:59.661Z,13.99
2022-10-21T19:46:03.052Z,14.02
2022-10-21T19:49:06.428Z,14.03
2022-10-21T19:52:08.038Z,14.03
2022-10-21T19:55:09.570Z,14.05
2022-10-21T19:58:14.301Z,13.84
2022-10-21T20:01:21.399Z,13.87
2022-10-21T20:04:24.704Z,13.83
2022-10-21T20:07:26.227Z,13.86
2022-10-21T20:10:28.072Z,13.70
2022-10-21T20:13:29.876Z,13.54
2022-10-21T20:16:42.283Z,13.47
2022-10-21T20:19:47.524Z,13.48
2022-10-21T20:22:49.037Z,13.61
2022-10-21T20:25:54.178Z,13.60
2022-10-21T20:28:56.464Z,13.56
2022-10-21T20:32:01.194Z,13.39
2022-10-21T20:35:02.912Z,13.42
2022-10-21T20:38:04.423Z,13.38
2022-10-21T20:41:09.425Z,13.42
2022-10-21T20:44:16.045Z,13.43
2022-10-21T20:47:19.084Z,13.42
2022-10-21T20:50:20.555Z,13.52
2022-10-21T20:53:22.474Z,13.52
2022-10-21T20:56:33.550Z,13.56
2022-10-21T20:59:38.104Z,13.54
2022-10-21T21:02:39.640Z,13.55
2022-10-21T21:05:41.107Z,13.56
2022-10-21T21:08:53.495Z,13.53
2022-10-21T21:12:04.557Z,13.58
2022-10-21T21:15:06.709Z,13.58
2022-10-21T21:18:11.452Z,13.48
2022-10-21T21:21:15.072Z,13.47
2022-10-21T21:24:16.553Z,13.44
2022-10-21T21:27:19.203Z,13.41
2022-10-21T21:30:20.632Z,13.40
2022-10-21T21:33:22.204Z,13.40
2022-10-21T21:36:24.291Z,13.44
2022-10-21T21:39:25.949Z,13.43
2022-10-21T21:42:27.432Z,13.42
2022-10-21T21:45:28.892Z,13.37
2022-10-21T21:48:33.928Z,13.36
2022-10-21T21:51:36.657Z,13.38
2022-10-21T21:54:38.217Z,13.41
2022-10-21T21:57:39.749Z,13.35
2022-10-21T22:00:41.260Z,13.38
2022-10-21T22:03:42.962Z,13.37
2022-10-21T22:06:44.461Z,13.35
2022-10-21T22:09:45.897Z,13.33
2022-10-21T22:12:47.733Z,13.31
2022-10-21T22:15:51.953Z,13.31
2022-10-21T22:18:54.472Z,13.28
2022-10-21T22:21:55.936Z,13.31
2022-10-21T22:24:57.430Z,13.27
2022-10-21T22:27:58.876Z,13.32
2022-10-21T22:31:13.053Z,13.27
2022-10-21T22:34:14.549Z,13.06
2022-10-21T22:37:16.018Z,13.22
2022-10-21T22:40:17.626Z,13.24
2022-10-21T22:43:19.124Z,13.29
2022-10-21T22:46:32.831Z,13.27
2022-10-21T22:49:35.548Z,13.24
2022-10-21T22:52:37.329Z,13.19
2022-10-21T22:55:39.684Z,13.16
2022-10-21T22:58:41.223Z,13.19
2022-10-21T23:01:42.797Z,13.18
2022-10-21T23:04:44.399Z,13.09
2022-10-21T23:07:45.863Z,13.07
2022-10-21T23:10:48.842Z,13.03
2022-10-21T23:14:02.078Z,12.96
2022-10-21T23:17:04.870Z,12.93
2022-10-21T23:20:07.004Z,12.94
2022-10-21T23:23:09.666Z,12.91
2022-10-21T23:26:11.144Z,12.89
2022-10-21T23:29:12.649Z,12.87
2022-10-21T23:32:14.139Z,12.93
2022-10-21T23:35:16.036Z,12.97
2022-10-21T23:38:17.684Z,13.01
2022-10-21T23:41:19.148Z,13.04
2022-10-21T23:44:20.632Z,13.01
2022-10-21T23:47:22.153Z,13.01
2022-10-21T23:50:23.755Z,12.99
2022-10-21T23:53:25.265Z,12.92
2022-10-21T23:56:26.823Z,12.93
2022-10-21T23:59:28.249Z,12.96
